Time;durP1;ratioP1;P1;durP2;ratioP2;P2;SDS_P1;SDS_P2;PMS_P1;PMS_P2;Temp;Humidity;BMP_temperature;BMP_pressure;BME280_temperature;BME280_humidity;BME280_pressure;Samples;Min_cycle;Max_cycle;Signal;HPM_P1;HPM_P2
2021/05/21 00:00:58;;;;;;;3.53;2.20;;;;;;;11.50;95.86;100291.56;5033392;28;20048;-68
2021/05/21 00:03:42;;;;;;;3.53;2.13;;;;;;;11.44;96.94;100276.13;5033519;28;20128;-67
2021/05/21 00:06:26;;;;;;;8.18;2.47;;;;;;;11.40;96.80;100263.25;5034582;28;20049;-67
2021/05/21 00:09:10;;;;;;;2.20;2.00;;;;;;;11.35;97.59;100265.53;5019302;28;20056;-68
2021/05/21 00:11:55;;;;;;;3.85;2.05;;;;;;;11.26;97.97;100267.25;5033412;28;20521;-67
2021/05/21 00:14:39;;;;;;;4.85;2.03;;;;;;;11.20;99.50;100259.84;5033124;28;20056;-67
2021/05/21 00:17:23;;;;;;;3.28;2.03;;;;;;;11.13;99.79;100250.75;5033335;28;20072;-67
2021/05/21 00:20:07;;;;;;;3.15;2.13;;;;;;;11.07;99.50;100245.16;5019417;28;20107;-68
2021/05/21 00:22:51;;;;;;;2.78;2.03;;;;;;;11.05;99.96;100252.47;5019282;28;20540;-67
2021/05/21 00:25:35;;;;;;;2.28;1.90;;;;;;;11.02;97.35;100242.94;5033954;28;20144;-68
2021/05/21 00:28:19;;;;;;;5.40;2.20;;;;;;;10.93;94.54;100238.47;5033477;28;20048;-67
2021/05/21 00:31:03;;;;;;;1.92;1.73;;;;;;;10.88;95.47;100235.41;5033885;28;20099;-68
2021/05/21 00:33:47;;;;;;;3.30;2.10;;;;;;;10.82;96.60;100227.16;5032737;28;20118;-67
2021/05/21 00:36:31;;;;;;;6.38;2.20;;;;;;;10.81;97.77;100225.47;5032992;28;20067;-67
2021/05/21 00:39:15;;;;;;;3.80;1.90;;;;;;;10.96;91.17;100203.50;5019022;28;20053;-67
2021/05/21 00:41:59;;;;;;;3.38;1.90;;;;;;;10.98;92.38;100212.19;5032917;28;20048;-67
2021/05/21 00:44:43;;;;;;;2.08;1.80;;;;;;;10.97;94.24;100202.50;5032594;28;20513;-67
2021/05/21 00:47:27;;;;;;;2.25;1.70;;;;;;;10.97;94.09;100207.84;5032874;28;20059;-67
2021/05/21 00:50:12;;;;;;;2.17;1.65;;;;;;;10.96;92.78;100208.84;5018831;28;20060;-67
2021/05/21 00:52:56;;;;;;;4.50;1.85;;;;;;;11.06;93.80;100211.47;5018868;28;20053;-68
2021/05/21 00:55:40;;;;;;;1.95;1.50;;;;;;;11.27;87.85;100207.53;5032727;28;20095;-68
2021/05/21 00:58:24;;;;;;;2.67;1.85;;;;;;;11.46;86.08;100201.25;5032580;28;20056;-68
2021/05/21 01:01:08;;;;;;;1.55;1.45;;;;;;;11.64;85.14;100202.97;5032595;28;20508;-67
2021/05/21 01:03:52;;;;;;;5.20;1.75;;;;;;;11.70;85.21;100190.84;5032294;28;20128;-67
2021/05/21 01:06:36;;;;;;;3.33;1.65;;;;;;;11.83;82.61;100191.28;5033341;28;20129;-67
2021/05/21 01:09:21;;;;;;;4.65;1.75;;;;;;;11.91;81.78;100173.50;5032574;28;20208;-67
2021/05/21 01:12:05;;;;;;;2.13;1.42;;;;;;;12.00;81.68;100169.88;5032543;28;20529;-67
2021/05/21 01:14:54;;;;;;;1.20;1.10;;;;;;;12.04;80.46;100167.72;5033221;28;20402;-67
2021/05/21 01:17:38;;;;;;;2.40;1.45;;;;;;;12.10;79.97;100167.13;5018563;28;20488;-67
2021/05/21 01:20:22;;;;;;;2.47;1.52;;;;;;;12.16;79.69;100162.00;5018525;28;20091;-68
2021/05/21 01:23:06;;;;;;;1.67;1.30;;;;;;;12.17;80.78;100162.84;5032471;28;20048;-67
2021/05/21 01:25:51;;;;;;;2.55;1.33;;;;;;;12.13;80.10;100164.97;5032319;28;20048;-67
2021/05/21 01:28:35;;;;;;;2.83;1.70;;;;;;;12.11;80.96;100161.63;5032369;28;20497;-67
2021/05/21 01:31:19;;;;;;;2.15;1.50;;;;;;;12.04;81.06;100160.56;5032419;28;20414;-67
2021/05/21 01:34:03;;;;;;;1.45;1.35;;;;;;;12.05;80.72;100150.72;5032287;28;20466;-67
2021/05/21 01:36:47;;;;;;;2.67;1.48;;;;;;;12.06;80.96;100142.53;5032316;28;20048;-67
2021/05/21 01:39:34;;;;;;;4.28;1.50;;;;;;;12.10;80.46;100135.06;5032055;28;20053;-67
2021/05/21 01:42:19;;;;;;;2.88;2.05;;;;;;;12.12;80.05;100128.56;5032037;28;20048;-67
2021/05/21 01:45:05;;;;;;;2.85;1.38;;;;;;;12.13;80.31;100124.91;5018238;28;20457;-67
2021/05/21 01:47:49;;;;;;;3.60;1.45;;;;;;;12.14;79.85;100115.88;5032126;28;20426;-67
2021/05/21 01:50:34;;;;;;;2.70;1.55;;;;;;;12.09;80.30;100112.81;5033143;28;20067;-67
2021/05/21 01:53:18;;;;;;;2.75;1.52;;;;;;;12.14;79.73;100107.88;5032596;28;20223;-67
2021/05/21 01:56:02;;;;;;;3.67;1.60;;;;;;;12.11;79.69;100104.66;5032163;28;20091;-67
2021/05/21 01:58:45;;;;;;;1.98;1.40;;;;;;;12.15;79.83;100100.66;5031868;28;20103;-67
2021/05/21 02:01:29;;;;;;;1.73;1.63;;;;;;;12.15;80.87;100095.31;5033056;28;20048;-67
2021/05/21 02:04:14;;;;;;;1.58;1.35;;;;;;;12.09;80.25;100091.47;5034784;28;20091;-68
2021/05/21 02:06:58;;;;;;;5.55;1.67;;;;;;;12.11;80.63;100086.81;5035836;28;20115;-67
2021/05/21 02:09:45;;;;;;;2.17;1.60;;;;;;;12.03;81.36;100081.41;5035478;28;20413;-66
2021/05/21 02:12:31;;;;;;;4.00;1.50;;;;;;;11.98;80.39;100082.88;5036670;28;20072;-68
2021/05/21 02:15:15;;;;;;;5.38;1.83;;;;;;;12.09;79.17;100082.63;5035418;28;20418;-67
2021/05/21 02:18:00;;;;;;;3.45;1.38;;;;;;;12.08;79.12;100079.09;5022522;28;20079;-67
2021/05/21 02:20:44;;;;;;;2.60;1.52;;;;;;;12.03;79.75;100076.06;5037813;28;20098;-67
2021/05/21 02:23:28;;;;;;;1.55;1.40;;;;;;;12.14;78.48;100078.47;5036998;28;20592;-68
2021/05/21 02:26:12;;;;;;;3.70;1.63;;;;;;;12.15;78.53;100080.16;5036279;28;20513;-67
2021/05/21 02:28:56;;;;;;;3.03;1.30;;;;;;;12.14;79.81;100066.94;5035530;28;20247;-68
2021/05/21 02:31:40;;;;;;;1.77;1.33;;;;;;;12.07;80.40;100072.06;5035447;28;20179;-68
2021/05/21 02:34:24;;;;;;;1.80;1.50;;;;;;;12.05;79.25;100063.38;5035215;28;20091;-68
2021/05/21 02:37:08;;;;;;;1.83;1.30;;;;;;;12.05;78.05;100055.38;5035510;28;20088;-67
2021/05/21 02:39:53;;;;;;;1.35;1.23;;;;;;;12.07;77.70;100050.69;5021483;28;20048;-68
2021/05/21 02:42:37;;;;;;;3.22;1.20;;;;;;;12.14;77.53;100042.88;5035133;28;20084;-66
2021/05/21 02:45:21;;;;;;;3.10;1.27;;;;;;;12.10;78.00;100034.34;5020877;28;20056;-68
2021/05/21 02:48:05;;;;;;;3.15;1.30;;;;;;;12.13;77.91;100027.84;5035110;28;20457;-68
2021/05/21 02:50:49;;;;;;;1.70;1.52;;;;;;;12.16;77.13;100025.69;5021002;28;20107;-67
2021/05/21 02:53:33;;;;;;;1.30;1.20;;;;;;;12.18;77.38;100020.22;5034543;28;20111;-67
2021/05/21 02:56:17;;;;;;;3.05;1.20;;;;;;;12.17;76.74;100018.53;5036708;28;20418;-67
2021/05/21 02:59:01;;;;;;;2.40;1.10;;;;;;;12.23;76.49;100023.22;5034896;28;20060;-67
2021/05/21 03:01:45;;;;;;;4.22;1.95;;;;;;;12.25;76.09;100005.19;5035119;28;20049;-68
2021/05/21 03:04:29;;;;;;;3.45;1.33;;;;;;;12.20;76.88;100008.34;5034708;28;20512;-68
2021/05/21 03:07:13;;;;;;;2.67;1.27;;;;;;;12.16;77.34;100004.31;5034724;28;20552;-67
2021/05/21 03:09:57;;;;;;;;;;;;;;;12.08;77.54;100000.78;5035089;28;20405;-67
2021/05/21 03:12:41;;;;;;;1.25;1.15;;;;;;;12.00;78.64;100000.75;5020678;28;20004;-68
2021/05/21 03:15:29;;;;;;;1.38;0.93;;;;;;;11.96;78.38;99996.69;5033447;28;20414;-68
2021/05/21 03:18:14;;;;;;;3.75;1.30;;;;;;;11.85;80.07;99997.81;5035501;28;20102;-67
2021/05/21 03:20:58;;;;;;;2.20;1.25;;;;;;;11.80;78.92;100007.31;5020256;28;20048;-68
2021/05/21 03:23:42;;;;;;;1.70;1.48;;;;;;;11.67;81.46;100005.06;5034628;28;20063;-67
2021/05/21 03:26:26;;;;;;;5.28;1.83;;;;;;;11.54;84.91;99999.28;5034586;28;20076;-68
2021/05/21 03:29:10;;;;;;;3.17;1.20;;;;;;;11.43;82.78;99991.53;5034075;28;20056;-68
2021/05/21 03:31:54;;;;;;;3.90;1.27;;;;;;;11.49;82.18;99979.38;5035056;28;20457;-68
2021/05/21 03:34:39;;;;;;;5.82;1.92;;;;;;;11.40;83.00;99973.16;5035100;28;20060;-67
2021/05/21 03:37:23;;;;;;;2.08;1.50;;;;;;;11.24;86.71;99978.38;5034159;28;20056;-68
2021/05/21 03:40:07;;;;;;;2.72;1.38;;;;;;;11.21;84.10;99981.34;5019859;28;20052;-68
2021/05/21 03:42:51;;;;;;;4.93;1.60;;;;;;;11.14;85.79;99976.78;5035007;28;20064;-68
2021/05/21 03:45:36;;;;;;;2.35;1.20;;;;;;;11.19;83.75;99972.69;5034713;28;20071;-68
2021/05/21 03:48:20;;;;;;;3.15;1.60;;;;;;;11.24;85.37;99973.03;5019653;28;20048;-68
2021/05/21 03:51:04;;;;;;;3.50;1.60;;;;;;;11.12;86.18;99971.59;5033852;28;20072;-68
2021/05/21 03:53:47;;;;;;;3.40;1.20;;;;;;;11.10;87.65;99970.09;5033266;28;20179;-67
2021/05/21 03:56:31;;;;;;;1.38;1.27;;;;;;;11.05;86.75;99964.38;5019669;28;20049;-68
2021/05/21 03:59:16;;;;;;;1.75;1.40;;;;;;;11.13;84.81;99962.59;5033749;28;20052;-68
2021/05/21 04:02:00;;;;;;;3.85;1.98;;;;;;;11.16;87.08;99956.94;5033654;28;20071;-68
2021/05/21 04:04:44;;;;;;;2.15;1.40;;;;;;;11.10;87.73;99952.25;5019358;28;20047;-68
2021/05/21 04:07:28;;;;;;;1.60;1.50;;;;;;;11.06;89.08;99953.53;5033526;28;20083;-67
2021/05/21 04:10:12;;;;;;;4.72;1.67;;;;;;;11.11;90.05;99939.75;5033510;28;20072;-68
2021/05/21 04:12:55;;;;;;;2.55;1.45;;;;;;;11.06;89.90;99945.53;5033171;28;20052;-68
2021/05/21 04:15:39;;;;;;;2.53;1.50;;;;;;;11.02;91.71;99938.84;5033235;28;20056;-68
2021/05/21 04:18:23;;;;;;;1.40;1.30;;;;;;;11.06;88.37;99940.19;5033536;28;20068;-68
2021/05/21 04:21:07;;;;;;;3.72;1.52;;;;;;;11.06;90.55;99940.19;5019066;28;20175;-68
2021/05/21 04:23:52;;;;;;;4.97;1.90;;;;;;;11.16;87.37;99929.47;5033092;28;20044;-68
2021/05/21 04:26:37;;;;;;;6.35;1.60;;;;;;;11.29;85.36;99929.88;5032662;28;20514;-68
2021/05/21 04:29:20;;;;;;;3.67;1.50;;;;;;;11.35;87.11;99927.41;5019478;28;20509;-67
2021/05/21 04:32:06;;;;;;;2.22;1.40;;;;;;;11.33;88.46;99929.41;5019188;28;20127;-68
2021/05/21 04:34:50;;;;;;;4.53;1.52;;;;;;;11.31;89.58;99934.06;5032772;28;20106;-68
2021/05/21 04:37:33;;;;;;;1.60;1.50;;;;;;;11.31;90.76;99930.53;5033020;28;20080;-67
2021/05/21 04:40:17;;;;;;;2.35;1.50;;;;;;;11.37;86.39;99925.41;5032997;28;20064;-68
2021/05/21 04:43:01;;;;;;;1.50;1.38;;;;;;;11.47;86.45;99926.13;5018641;28;20083;-69
2021/05/21 04:45:45;;;;;;;2.05;1.55;;;;;;;11.55;86.74;99931.53;5018957;28;20414;-68
2021/05/21 04:48:29;;;;;;;5.15;1.30;;;;;;;11.67;83.41;99921.47;5033876;28;20115;-68
2021/05/21 04:51:13;;;;;;;3.80;1.38;;;;;;;11.86;82.20;99929.22;5033041;28;20102;-67
2021/05/21 04:54:01;;;;;;;2.08;1.00;;;;;;;12.02;79.87;99924.78;5032600;28;20099;-68
2021/05/21 04:56:45;;;;;;;1.25;1.15;;;;;;;12.19;78.27;99915.00;5033792;28;20052;-68
2021/05/21 04:59:29;;;;;;;1.60;1.48;;;;;;;12.34;78.09;99908.00;5032395;28;20429;-67
2021/05/21 05:02:13;;;;;;;;;;;;;;;12.47;76.71;99909.19;5019078;28;20088;-68
2021/05/21 05:04:57;;;;;;;3.13;1.60;;;;;;;12.60;75.39;99917.56;5032227;28;20055;-68
2021/05/21 05:07:41;;;;;;;1.65;1.23;;;;;;;12.67;74.95;99899.84;5018613;28;20094;-68
2021/05/21 05:10:25;;;;;;;1.23;1.08;;;;;;;12.79;73.78;99905.72;5032465;28;20144;-68
2021/05/21 05:13:09;;;;;;;1.73;1.17;;;;;;;12.89;74.01;99899.19;5018307;28;20096;-68
2021/05/21 05:15:53;;;;;;;1.33;0.93;;;;;;;13.00;73.46;99898.88;5018625;28;20048;-67
2021/05/21 05:18:37;;;;;;;1.48;1.02;;;;;;;13.11;72.57;99894.03;5033171;28;20095;-67
2021/05/21 05:21:22;;;;;;;1.45;1.20;;;;;;;13.25;71.52;99900.53;5018535;28;20521;-68
2021/05/21 05:24:12;;;;;;;4.10;1.15;;;;;;;13.39;70.23;99886.44;5032453;28;20133;-67
2021/05/21 05:26:57;;;;;;;3.35;1.20;;;;;;;13.52;71.04;99887.59;5017951;28;20095;-67
2021/05/21 05:29:45;;;;;;;2.67;1.20;;;;;;;13.59;69.88;99877.00;5032251;28;20047;-68
2021/05/21 05:32:29;;;;;;;1.63;1.13;;;;;;;13.75;69.58;99883.16;5032970;28;20111;-67
2021/05/21 05:35:13;;;;;;;1.38;1.17;;;;;;;13.85;68.41;99883.78;5032183;28;20045;-68
2021/05/21 05:37:57;;;;;;;2.60;1.00;;;;;;;13.97;66.82;99878.88;5032124;28;20056;-68
2021/05/21 05:40:41;;;;;;;;;;;;;;;14.00;67.03;99871.31;5036808;28;20060;-68
2021/05/21 05:43:25;;;;;;;3.43;1.20;;;;;;;14.10;67.13;99850.47;5037163;28;19963;-68
2021/05/21 05:46:10;;;;;;;2.03;1.20;;;;;;;14.21;66.54;99852.81;5036230;28;20100;-68
2021/05/21 05:48:54;;;;;;;2.10;1.20;;;;;;;14.34;65.49;99853.03;5035865;28;20048;-68
2021/05/21 05:51:38;;;;;;;1.35;1.05;;;;;;;14.45;64.77;99849.09;5037137;28;20095;-67
2021/05/21 05:54:22;;;;;;;2.58;1.05;;;;;;;14.63;63.97;99841.59;5021527;28;20141;-67
2021/05/21 05:57:07;;;;;;;4.05;1.30;;;;;;;14.77;63.67;99846.16;5036247;28;20171;-67
2021/05/21 05:59:51;;;;;;;16.98;1.30;;;;;;;14.80;63.95;99851.19;5021983;28;20525;-68
2021/05/21 06:02:34;;;;;;;2.10;1.05;;;;;;;14.82;63.79;99844.63;5021910;28;20049;-68
2021/05/21 06:05:19;;;;;;;2.28;1.27;;;;;;;14.88;63.09;99846.56;5021581;28;20056;-68
2021/05/21 06:08:05;;;;;;;1.80;1.10;;;;;;;14.85;62.69;99854.16;5036751;28;20504;-67
2021/05/21 06:10:51;;;;;;;4.07;1.08;;;;;;;14.85;62.64;99852.31;5035521;28;20064;-68
2021/05/21 06:13:35;;;;;;;1.77;1.00;;;;;;;14.92;63.03;99855.09;5035171;28;20072;-67
2021/05/21 06:16:19;;;;;;;1.50;1.30;;;;;;;14.93;62.97;99835.28;5035687;28;20060;-67
2021/05/21 06:19:03;;;;;;;1.27;1.08;;;;;;;15.02;61.98;99839.56;5036785;28;20063;-67
2021/05/21 06:21:47;;;;;;;2.45;1.10;;;;;;;15.14;61.86;99841.63;5021778;28;20056;-67
2021/05/21 06:24:30;;;;;;;2.92;1.02;;;;;;;15.25;61.87;99838.50;5035491;28;20452;-67
2021/05/21 06:27:29;;;;;;;3.58;1.27;;;;;;;15.32;60.25;99836.75;5035472;28;20110;-68
2021/05/21 06:30:14;;;;;;;1.20;1.10;;;;;;;15.38;60.58;99840.53;5035253;28;20048;-68
2021/05/21 06:32:58;;;;;;;1.55;1.00;;;;;;;15.41;59.33;99837.50;5035280;28;20095;-67
2021/05/21 06:35:41;;;;;;;1.23;1.00;;;;;;;15.47;60.13;99824.16;5035346;28;20043;-65
2021/05/21 06:38:25;;;;;;;2.92;0.90;;;;;;;15.61;59.22;99835.94;5035967;28;20095;-68
2021/05/21 06:41:10;;;;;;;2.83;1.10;;;;;;;15.52;58.96;99832.50;5035226;28;20053;-67
2021/05/21 06:43:54;;;;;;;2.50;1.17;;;;;;;15.56;58.38;99835.66;5036101;28;20414;-68
2021/05/21 06:46:37;;;;;;;4.75;1.10;;;;;;;15.51;58.76;99822.75;5035176;28;20064;-68
2021/05/21 06:49:21;;;;;;;2.10;1.00;;;;;;;15.55;58.54;99824.09;5034831;28;20052;-65
2021/05/21 06:52:06;;;;;;;3.33;1.33;;;;;;;15.57;59.14;99822.03;5021050;28;20083;-68
2021/05/21 06:54:50;;;;;;;2.60;1.10;;;;;;;15.62;58.86;99819.59;5034539;28;20084;-68
2021/05/21 06:57:35;;;;;;;0.73;0.73;;;;;;;15.69;58.89;99825.91;5034562;28;20102;-67
2021/05/21 07:00:19;;;;;;;3.78;1.27;;;;;;;15.75;58.75;99820.63;5020814;28;20060;-68
2021/05/21 07:03:03;;;;;;;;;;;;;;;15.75;58.84;99817.09;5035456;28;20048;-69
2021/05/21 07:05:47;;;;;;;0.93;0.90;;;;;;;15.76;58.52;99821.47;5034815;28;19920;-66
2021/05/21 07:08:31;;;;;;;3.95;1.38;;;;;;;15.76;59.79;99829.53;5034735;28;20103;-67
2021/05/21 07:11:15;;;;;;;4.18;1.15;;;;;;;15.77;60.39;99823.94;5020735;28;20557;-67
2021/05/21 07:13:59;;;;;;;3.55;1.05;;;;;;;15.64;59.61;99837.22;5035524;28;20103;-68
2021/05/21 07:16:43;;;;;;;1.95;1.10;;;;;;;15.67;59.80;99836.84;5034268;28;20053;-68
2021/05/21 07:19:27;;;;;;;4.00;1.30;;;;;;;15.57;60.50;99838.16;5020634;28;20048;-67
2021/05/21 07:22:11;;;;;;;1.27;1.00;;;;;;;15.71;60.61;99839.97;5020151;28;20080;-67
2021/05/21 07:24:55;;;;;;;4.35;1.13;;;;;;;15.79;60.22;99842.56;5035328;28;20119;-68
2021/05/21 07:27:39;;;;;;;4.53;1.48;;;;;;;15.81;60.03;99841.38;5020282;28;20064;-67
2021/05/21 07:30:23;;;;;;;4.28;1.25;;;;;;;15.81;60.31;99832.47;5033967;28;20084;-67
2021/05/21 07:33:07;;;;;;;3.78;1.17;;;;;;;15.87;60.39;99835.22;5020089;28;20087;-68
2021/05/21 07:35:51;;;;;;;3.00;1.20;;;;;;;15.90;59.97;99826.81;5034494;28;20056;-68
2021/05/21 07:38:36;;;;;;;3.70;1.35;;;;;;;15.99;59.91;99820.28;5034063;28;20187;-67
2021/05/21 07:41:22;;;;;;;5.07;1.40;;;;;;;16.13;59.50;99832.88;5033869;28;20048;-68
2021/05/21 07:44:07;;;;;;;3.05;1.40;;;;;;;16.14;58.79;99826.47;5034025;28;20052;-67
2021/05/21 07:46:51;;;;;;;1.90;1.20;;;;;;;16.08;58.74;99839.84;5020150;28;20048;-68
2021/05/21 07:49:35;;;;;;;3.13;1.20;;;;;;;16.07;59.70;99833.63;5019955;28;20051;-67
2021/05/21 07:52:19;;;;;;;0.60;0.60;;;;;;;15.97;58.95;99835.78;5033958;28;20148;-68
2021/05/21 07:55:05;;;;;;;3.22;1.50;;;;;;;15.86;60.02;99838.13;5033782;28;20048;-67
2021/05/21 07:57:49;;;;;;;2.08;1.25;;;;;;;15.88;59.98;99818.06;5020030;28;20053;-68
2021/05/21 08:00:33;;;;;;;2.28;1.38;;;;;;;16.01;60.12;99817.41;5034421;28;20128;-67
2021/05/21 08:03:17;;;;;;;1.80;1.05;;;;;;;16.07;58.37;99841.69;5034592;28;20407;-67
2021/05/21 08:06:01;;;;;;;3.10;1.20;;;;;;;16.19;57.50;99839.34;5034964;28;20052;-68
2021/05/21 08:08:45;;;;;;;2.10;1.02;;;;;;;16.39;56.31;99825.09;5020128;28;20144;-68
2021/05/21 08:11:30;;;;;;;2.00;1.08;;;;;;;16.36;56.71;99820.09;5034430;28;20056;-68
2021/05/21 08:14:14;;;;;;;1.58;0.80;;;;;;;16.35;54.74;99828.31;5033179;28;20122;-68
2021/05/21 08:16:58;;;;;;;2.40;1.10;;;;;;;16.47;55.37;99822.28;5033407;28;20051;-67
2021/05/21 08:19:42;;;;;;;5.53;1.10;;;;;;;16.45;55.44;99823.50;5033344;28;20056;-67
2021/05/21 08:22:26;;;;;;;4.20;1.10;;;;;;;16.42;54.58;99810.44;5033300;28;20103;-68
2021/05/21 08:25:11;;;;;;;1.90;1.10;;;;;;;16.33;54.13;99803.47;5019147;28;20044;-68
2021/05/21 08:27:54;;;;;;;;;;;;;;;16.42;54.00;99808.59;5033325;28;20052;-68
2021/05/21 08:30:38;;;;;;;1.83;0.93;;;;;;;16.56;52.85;99796.91;5033045;28;19919;-68
2021/05/21 08:33:22;;;;;;;4.28;1.30;;;;;;;16.57;52.51;99768.97;5019054;28;20503;-68
2021/05/21 08:36:07;;;;;;;1.10;1.00;;;;;;;16.73;52.57;99797.47;5033113;28;20143;-68
2021/05/21 08:38:52;;;;;;;1.73;0.82;;;;;;;16.81;52.65;99802.72;5032896;28;20091;-67
2021/05/21 08:41:38;;;;;;;2.92;1.33;;;;;;;16.73;52.70;99774.09;5019088;28;20080;-68
2021/05/21 08:44:23;;;;;;;2.05;1.15;;;;;;;16.71;53.00;99769.91;5033149;28;20414;-68
2021/05/21 08:47:07;;;;;;;3.55;1.27;;;;;;;16.61;53.32;99782.88;5019075;28;20051;-68
2021/05/21 08:49:51;;;;;;;2.75;1.20;;;;;;;16.63;53.31;99778.97;5018631;28;20133;-68
2021/05/21 08:52:35;;;;;;;1.55;0.88;;;;;;;16.65;54.20;99762.59;5032720;28;20048;-68
2021/05/21 08:55:19;;;;;;;2.53;1.20;;;;;;;16.75;53.33;99747.81;5041187;22;20565;-67
2021/05/21 08:58:16;;;;;;;2.22;1.30;;;;;;;16.89;53.35;99754.94;5032489;28;20057;-67
2021/05/21 09:01:00;;;;;;;1.63;1.10;;;;;;;17.03;53.19;99774.72;5046763;28;20064;-67
2021/05/21 09:03:46;;;;;;;1.35;0.90;;;;;;;17.04;51.68;99762.91;5033621;28;20466;-67
2021/05/21 09:06:30;;;;;;;0.73;0.60;;;;;;;17.06;52.19;99818.25;5032540;28;20103;-68
2021/05/21 09:09:14;;;;;;;3.17;1.00;;;;;;;17.18;52.79;99789.72;5033210;28;20047;-67
2021/05/21 09:11:59;;;;;;;2.00;1.27;;;;;;;17.27;53.38;99804.72;5032322;28;20130;-67
2021/05/21 09:15:02;;;;;;;3.40;1.33;;;;;;;17.32;52.92;99839.94;5031425;28;20048;-67
2021/05/21 09:18:01;;;;;;;3.55;1.20;;;;;;;17.10;53.53;99819.50;5032372;28;20084;-68
2021/05/21 09:20:45;;;;;;;4.20;1.00;;;;;;;17.11;54.95;99829.25;5032443;28;20052;-67
2021/05/21 09:23:30;;;;;;;8.20;1.40;;;;;;;17.09;53.92;99825.91;5032082;28;20084;-67
2021/05/21 09:26:14;;;;;;;3.85;1.02;;;;;;;17.01;53.66;99853.00;5032572;28;20508;-67
2021/05/21 09:28:58;;;;;;;0.95;0.85;;;;;;;17.01;53.24;99819.84;5033610;28;20048;-68
2021/05/21 09:31:49;;;;;;;1.48;1.20;;;;;;;17.09;53.24;99839.38;5032316;28;20049;-67
2021/05/21 09:34:33;;;;;;;3.08;1.10;;;;;;;17.17;53.53;99820.38;5018248;28;20422;-66
2021/05/21 09:37:23;;;;;;;1.60;0.80;;;;;;;17.05;52.81;99824.66;5018336;28;20425;-68
2021/05/21 09:40:11;;;;;;;4.13;1.13;;;;;;;17.12;52.55;99828.25;5033178;28;20056;-67
2021/05/21 09:43:05;;;;;;;2.08;0.98;;;;;;;17.09;52.75;99877.09;5032952;28;20044;-68
2021/05/21 09:45:49;;;;;;;2.60;1.23;;;;;;;17.15;53.10;99835.91;5033135;28;20051;-68
2021/05/21 09:48:34;;;;;;;4.85;1.23;;;;;;;17.32;52.90;99812.19;5018184;28;20415;-67
2021/05/21 09:51:22;;;;;;;7.30;1.35;;;;;;;17.35;52.82;99844.13;5031862;28;20056;-67
2021/05/21 09:54:06;;;;;;;2.30;1.10;;;;;;;17.29;52.65;99845.75;5031673;28;20107;-67
2021/05/21 09:57:04;;;;;;;3.63;1.23;;;;;;;17.40;52.66;99858.69;5032658;28;20560;-67
2021/05/21 09:59:48;;;;;;;2.70;0.98;;;;;;;17.44;52.59;99846.50;5032810;28;20051;-67
2021/05/21 10:02:32;;;;;;;2.47;1.17;;;;;;;17.53;52.80;99848.03;5033073;28;20059;-67
2021/05/21 10:05:16;;;;;;;2.97;0.98;;;;;;;17.53;52.87;99853.41;5031848;28;20053;-68
2021/05/21 10:08:00;;;;;;;6.00;1.02;;;;;;;17.54;51.35;99876.63;5032708;28;20052;-67
2021/05/21 10:10:46;;;;;;;3.30;1.27;;;;;;;17.49;51.45;99852.13;5032954;28;20052;-67
2021/05/21 10:13:31;;;;;;;2.45;0.90;;;;;;;17.29;49.85;99883.47;5031955;28;20067;-68
2021/05/21 10:16:19;;;;;;;3.78;1.08;;;;;;;17.26;50.25;99870.41;5032488;28;20052;-67
2021/05/21 10:19:04;;;;;;;4.20;1.00;;;;;;;17.45;50.19;99853.56;5017939;28;20060;-68
2021/05/21 10:21:48;;;;;;;3.35;0.93;;;;;;;17.50;50.72;99869.16;5032691;28;20083;-67
2021/05/21 10:24:34;;;;;;;2.55;1.10;;;;;;;17.43;51.23;99849.41;5018262;28;20048;-67
2021/05/21 10:27:26;;;;;;;1.85;1.05;;;;;;;17.37;50.16;99859.09;5035191;28;20119;-67
2021/05/21 10:30:11;;;;;;;1.52;0.68;;;;;;;17.30;50.67;99850.09;5034989;28;20516;-68
2021/05/21 10:33:28;;;;;;;4.15;0.98;;;;;;;17.26;51.58;99864.16;5036193;28;20091;-68
2021/05/21 10:36:15;;;;;;;2.20;1.00;;;;;;;17.33;51.76;99857.81;5021253;28;20048;-67
2021/05/21 10:39:19;;;;;;;1.30;0.93;;;;;;;17.55;50.38;99872.91;5036220;28;20080;-68
2021/05/21 10:42:18;;;;;;;6.78;1.00;;;;;;;17.67;51.10;99867.78;5034933;28;20413;-67
2021/05/21 10:45:12;;;;;;;3.15;0.93;;;;;;;18.02;49.81;99854.06;5034807;28;20045;-68
2021/05/21 10:48:03;;;;;;;2.60;1.27;;;;;;;18.42;49.67;99844.25;5034804;28;20541;-67
2021/05/21 10:50:47;;;;;;;6.13;2.13;;;;;;;18.51;48.94;99855.50;5035798;28;20424;-66
2021/05/21 10:53:31;;;;;;;2.10;1.00;;;;;;;18.95;48.36;99884.63;5035846;28;20101;-67
2021/05/21 10:56:16;;;;;;;2.08;1.20;;;;;;;18.83;50.28;99845.75;5034451;28;20060;-68
2021/05/21 10:59:02;;;;;;;1.88;1.00;;;;;;;18.15;52.63;99853.28;5034603;28;20079;-67
2021/05/21 11:01:47;;;;;;;1.98;1.40;;;;;;;17.74;54.32;99852.47;5035848;28;20074;-67
2021/05/21 11:04:31;;;;;;;4.68;1.52;;;;;;;17.68;55.38;99858.66;5020581;28;20061;-68
2021/05/21 11:07:40;;;;;;;4.45;1.35;;;;;;;17.66;56.14;99831.06;5020765;28;20593;-67
2021/05/21 11:10:38;;;;;;;1.83;1.20;;;;;;;17.34;56.28;99848.69;5034679;28;20048;-67
2021/05/21 11:13:26;;;;;;;2.15;1.40;;;;;;;17.24;58.04;99856.28;5034567;28;20040;-67
2021/05/21 11:16:13;;;;;;;1.65;1.35;;;;;;;17.36;56.50;99840.44;5020064;28;20140;-67
2021/05/21 11:18:57;;;;;;;1.98;1.40;;;;;;;17.86;56.57;99846.31;5020591;28;20406;-67
2021/05/21 11:21:41;;;;;;;3.05;1.30;;;;;;;18.84;55.08;99850.13;5034368;28;20052;-66
2021/05/21 11:24:36;;;;;;;2.35;1.13;;;;;;;19.26;54.41;99833.50;5034576;28;20041;-67
2021/05/21 11:27:20;;;;;;;;;;;;;;;19.68;52.78;99860.88;5034807;28;20043;-67
2021/05/21 11:30:09;;;;;;;3.15;1.10;;;;;;;19.78;54.12;99850.47;5034508;28;19982;-67
2021/05/21 11:32:54;;;;;;;2.25;1.02;;;;;;;19.22;54.62;99875.53;5034413;28;20095;-67
2021/05/21 11:35:38;;;;;;;1.10;0.93;;;;;;;18.83;56.92;99861.97;5034526;28;20159;-67
2021/05/21 11:38:26;;;;;;;1.77;0.90;;;;;;;18.28;57.46;99848.75;5019985;28;20162;-68
2021/05/21 11:41:11;;;;;;;2.65;0.95;;;;;;;17.82;60.32;99830.75;5035333;28;20509;-67
2021/05/21 11:44:01;;;;;;;1.25;1.10;;;;;;;18.01;60.21;99847.00;5020142;28;20045;-67
2021/05/21 11:46:46;;;;;;;2.38;1.20;;;;;;;18.04;60.51;99846.63;5033681;28;20048;-68
2021/05/21 11:49:31;;;;;;;4.85;1.00;;;;;;;18.10;60.60;99853.88;5034584;28;20064;-67
2021/05/21 11:52:15;;;;;;;2.13;1.20;;;;;;;17.37;62.34;99851.03;5019824;28;20411;-66
2021/05/21 11:54:59;;;;;;;1.77;0.80;;;;;;;17.10;63.17;99856.38;5033432;28;20056;-67
2021/05/21 11:57:48;;;;;;;1.42;1.10;;;;;;;17.12;63.61;99865.09;5034373;28;20099;-67
2021/05/21 12:00:34;;;;;;;2.88;0.98;;;;;;;16.97;64.31;99849.03;5033398;28;20080;-66
2021/05/21 12:03:17;;;;;;;4.72;1.05;;;;;;;17.04;64.21;99867.94;5034697;28;20048;-66
2021/05/21 12:06:02;;;;;;;4.80;1.13;;;;;;;17.09;65.12;99860.94;5034708;28;20524;-67
2021/05/21 12:08:47;;;;;;;;;;;;;;;16.78;67.59;99890.06;5033665;28;20045;-67
2021/05/21 12:11:31;;;;;;;3.97;1.27;;;;;;;16.29;73.43;99867.56;5033177;28;19920;-67
2021/05/21 12:14:24;;;;;;;2.60;1.20;;;;;;;15.96;74.17;99870.94;5034128;28;20036;-67
2021/05/21 12:17:07;;;;;;;1.67;1.13;;;;;;;15.79;77.96;99869.47;5033012;28;20064;-67
2021/05/21 12:19:51;;;;;;;2.63;1.00;;;;;;;15.82;75.07;99859.16;5033144;28;20052;-68
2021/05/21 12:22:35;;;;;;;4.78;1.23;;;;;;;16.13;75.01;99846.31;5034092;28;20051;-67
2021/05/21 12:25:20;;;;;;;3.00;1.15;;;;;;;16.36;75.36;99841.63;5033176;28;20044;-68
2021/05/21 12:28:04;;;;;;;7.18;1.10;;;;;;;16.53;72.80;99859.19;5032912;28;20052;-67
2021/05/21 12:30:49;;;;;;;2.25;1.10;;;;;;;16.24;73.44;99848.50;5033208;28;20052;-67
2021/05/21 12:33:34;;;;;;;1.40;1.20;;;;;;;16.16;72.12;99867.44;5032953;28;20091;-67
2021/05/21 12:36:22;;;;;;;3.90;1.20;;;;;;;15.90;74.21;99861.75;5033995;28;20114;-67
2021/05/21 12:39:09;;;;;;;3.83;1.30;;;;;;;16.33;72.98;99852.75;5032880;28;20060;-68
2021/05/21 12:41:54;;;;;;;1.77;1.13;;;;;;;16.54;71.12;99849.25;5018694;28;20052;-67
2021/05/21 12:44:43;;;;;;;6.32;1.30;;;;;;;16.64;70.97;99834.47;5033595;28;20122;-68
2021/05/21 12:47:27;;;;;;;1.80;0.95;;;;;;;17.06;68.32;99855.09;5032646;28;20111;-68
2021/05/21 12:50:12;;;;;;;1.40;1.20;;;;;;;17.00;68.99;99834.34;5033793;28;20115;-67
2021/05/21 12:52:58;;;;;;;2.88;1.48;;;;;;;17.38;68.51;99844.59;5032496;28;20048;-67
2021/05/21 12:55:45;;;;;;;2.67;1.55;;;;;;;17.24;67.91;99844.66;5033295;28;20123;-67
2021/05/21 12:58:40;;;;;;;4.68;0.98;;;;;;;17.36;68.16;99833.19;5032606;28;20465;-67